sensor_id;sensor_type;location;lat;lon;timestamp;P1;durP1;ratioP1;P2;durP2;ratioP2
25279;SDS011;13225;47.804;12.116;2023-02-14T00:01:42;68.95;;;22.17;;
25279;SDS011;13225;47.804;12.116;2023-02-14T00:04:09;63.78;;;22.70;;
25279;SDS011;13225;47.804;12.116;2023-02-14T00:06:34;71.68;;;22.52;;
25279;SDS011;13225;47.804;12.116;2023-02-14T00:09:03;70.13;;;22.83;;
25279;SDS011;13225;47.804;12.116;2023-02-14T00:11:29;70.75;;;23.30;;
25279;SDS011;13225;47.804;12.116;2023-02-14T00:13:56;69.15;;;23.45;;
25279;SDS011;13225;47.804;12.116;2023-02-14T00:16:41;74.07;;;23.02;;
25279;SDS011;13225;47.804;12.116;2023-02-14T00:19:07;76.25;;;23.83;;
25279;SDS011;13225;47.804;12.116;2023-02-14T00:21:35;73.38;;;24.25;;
25279;SDS011;13225;47.804;12.116;2023-02-14T00:24:03;74.20;;;23.00;;
25279;SDS011;13225;47.804;12.116;2023-02-14T00:26:30;75.72;;;23.15;;
25279;SDS011;13225;47.804;12.116;2023-02-14T00:28:56;65.78;;;21.80;;
25279;SDS011;13225;47.804;12.116;2023-02-14T00:31:22;64.47;;;22.60;;
25279;SDS011;13225;47.804;12.116;2023-02-14T00:33:47;65.28;;;21.48;;
25279;SDS011;13225;47.804;12.116;2023-02-14T00:36:13;54.35;;;21.55;;
25279;SDS011;13225;47.804;12.116;2023-02-14T00:38:39;55.67;;;19.60;;
25279;SDS011;13225;47.804;12.116;2023-02-14T00:41:05;49.58;;;18.33;;
25279;SDS011;13225;47.804;12.116;2023-02-14T00:43:30;46.95;;;18.23;;
25279;SDS011;13225;47.804;12.116;2023-02-14T00:45:56;41.13;;;16.60;;
25279;SDS011;13225;47.804;12.116;2023-02-14T00:48:21;46.20;;;17.17;;
25279;SDS011;13225;47.804;12.116;2023-02-14T00:50:47;45.22;;;17.80;;
25279;SDS011;13225;47.804;12.116;2023-02-14T00:53:13;50.35;;;18.75;;
25279;SDS011;13225;47.804;12.116;2023-02-14T00:55:38;51.70;;;19.42;;
25279;SDS011;13225;47.804;12.116;2023-02-14T00:58:04;54.50;;;18.70;;
25279;SDS011;13225;47.804;12.116;2023-02-14T01:00:29;54.95;;;19.98;;
25279;SDS011;13225;47.804;12.116;2023-02-14T01:02:55;53.10;;;18.75;;
25279;SDS011;13225;47.804;12.116;2023-02-14T01:05:21;47.08;;;18.55;;
25279;SDS011;13225;47.804;12.116;2023-02-14T01:07:46;51.05;;;19.02;;
25279;SDS011;13225;47.804;12.116;2023-02-14T01:10:12;44.67;;;15.60;;
25279;SDS011;13225;47.804;12.116;2023-02-14T01:12:38;47.08;;;17.98;;
25279;SDS011;13225;47.804;12.116;2023-02-14T01:15:03;40.20;;;14.85;;
25279;SDS011;13225;47.804;12.116;2023-02-14T01:17:29;46.63;;;17.90;;
25279;SDS011;13225;47.804;12.116;2023-02-14T01:19:55;41.22;;;16.45;;
25279;SDS011;13225;47.804;12.116;2023-02-14T01:22:20;39.53;;;16.83;;
25279;SDS011;13225;47.804;12.116;2023-02-14T01:24:46;42.60;;;16.20;;
25279;SDS011;13225;47.804;12.116;2023-02-14T01:27:11;42.15;;;16.88;;
25279;SDS011;13225;47.804;12.116;2023-02-14T01:29:37;44.00;;;18.23;;
25279;SDS011;13225;47.804;12.116;2023-02-14T01:32:03;40.65;;;16.08;;
25279;SDS011;13225;47.804;12.116;2023-02-14T01:34:28;46.40;;;17.45;;
25279;SDS011;13225;47.804;12.116;2023-02-14T01:36:54;33.03;;;13.23;;
25279;SDS011;13225;47.804;12.116;2023-02-14T01:39:22;52.20;;;19.80;;
25279;SDS011;13225;47.804;12.116;2023-02-14T01:41:47;48.30;;;18.88;;
25279;SDS011;13225;47.804;12.116;2023-02-14T01:46:39;51.10;;;19.75;;
25279;SDS011;13225;47.804;12.116;2023-02-14T01:49:08;47.53;;;18.25;;
25279;SDS011;13225;47.804;12.116;2023-02-14T01:51:34;51.80;;;18.80;;
25279;SDS011;13225;47.804;12.116;2023-02-14T01:54:02;48.45;;;19.05;;
25279;SDS011;13225;47.804;12.116;2023-02-14T01:56:35;55.53;;;19.17;;
25279;SDS011;13225;47.804;12.116;2023-02-14T01:59:06;54.50;;;19.60;;
25279;SDS011;13225;47.804;12.116;2023-02-14T02:01:36;51.42;;;18.45;;
25279;SDS011;13225;47.804;12.116;2023-02-14T02:04:06;57.80;;;19.80;;
25279;SDS011;13225;47.804;12.116;2023-02-14T02:06:36;54.20;;;18.15;;
25279;SDS011;13225;47.804;12.116;2023-02-14T02:12:03;48.28;;;18.90;;
25279;SDS011;13225;47.804;12.116;2023-02-14T02:14:28;46.42;;;17.13;;
25279;SDS011;13225;47.804;12.116;2023-02-14T02:42:47;52.28;;;19.33;;
25279;SDS011;13225;47.804;12.116;2023-02-14T02:50:41;45.67;;;17.15;;
25279;SDS011;13225;47.804;12.116;2023-02-14T02:56:18;41.60;;;17.92;;
25279;SDS011;13225;47.804;12.116;2023-02-14T02:59:11;41.75;;;17.50;;
25279;SDS011;13225;47.804;12.116;2023-02-14T03:04:29;40.45;;;16.90;;
25279;SDS011;13225;47.804;12.116;2023-02-14T03:07:17;44.45;;;16.85;;
25279;SDS011;13225;47.804;12.116;2023-02-14T03:12:48;43.90;;;17.38;;
25279;SDS011;13225;47.804;12.116;2023-02-14T03:18:06;46.40;;;18.23;;
25279;SDS011;13225;47.804;12.116;2023-02-14T03:24:08;43.72;;;16.45;;
25279;SDS011;13225;47.804;12.116;2023-02-14T03:27:01;43.30;;;16.85;;
25279;SDS011;13225;47.804;12.116;2023-02-14T03:32:35;44.90;;;16.52;;
25279;SDS011;13225;47.804;12.116;2023-02-14T03:40:40;41.38;;;17.17;;
25279;SDS011;13225;47.804;12.116;2023-02-14T03:43:18;39.92;;;16.15;;
25279;SDS011;13225;47.804;12.116;2023-02-14T03:46:00;40.33;;;16.88;;
25279;SDS011;13225;47.804;12.116;2023-02-14T03:48:28;45.80;;;17.42;;
25279;SDS011;13225;47.804;12.116;2023-02-14T03:50:57;41.55;;;16.40;;
25279;SDS011;13225;47.804;12.116;2023-02-14T03:53:25;41.50;;;17.15;;
25279;SDS011;13225;47.804;12.116;2023-02-14T03:56:14;42.22;;;17.15;;
25279;SDS011;13225;47.804;12.116;2023-02-14T03:58:50;40.03;;;15.60;;
25279;SDS011;13225;47.804;12.116;2023-02-14T04:01:20;44.20;;;16.33;;
25279;SDS011;13225;47.804;12.116;2023-02-14T04:03:50;44.90;;;16.98;;
25279;SDS011;13225;47.804;12.116;2023-02-14T04:06:18;43.20;;;15.90;;
25279;SDS011;13225;47.804;12.116;2023-02-14T04:08:44;41.78;;;17.65;;
25279;SDS011;13225;47.804;12.116;2023-02-14T04:11:10;46.78;;;16.75;;
25279;SDS011;13225;47.804;12.116;2023-02-14T04:13:36;44.25;;;17.60;;
25279;SDS011;13225;47.804;12.116;2023-02-14T04:16:02;41.15;;;16.23;;
25279;SDS011;13225;47.804;12.116;2023-02-14T04:18:28;46.88;;;18.58;;
25279;SDS011;13225;47.804;12.116;2023-02-14T04:21:12;45.03;;;17.25;;
25279;SDS011;13225;47.804;12.116;2023-02-14T04:23:38;47.15;;;18.45;;
25279;SDS011;13225;47.804;12.116;2023-02-14T04:26:03;46.47;;;17.90;;
25279;SDS011;13225;47.804;12.116;2023-02-14T04:28:29;49.55;;;17.92;;
25279;SDS011;13225;47.804;12.116;2023-02-14T04:30:55;44.67;;;17.63;;
25279;SDS011;13225;47.804;12.116;2023-02-14T04:33:21;44.97;;;17.23;;
25279;SDS011;13225;47.804;12.116;2023-02-14T04:35:47;45.70;;;17.80;;
25279;SDS011;13225;47.804;12.116;2023-02-14T04:38:13;50.80;;;17.65;;
25279;SDS011;13225;47.804;12.116;2023-02-14T04:40:38;43.88;;;18.15;;
25279;SDS011;13225;47.804;12.116;2023-02-14T04:43:04;50.95;;;18.63;;
25279;SDS011;13225;47.804;12.116;2023-02-14T04:45:31;45.95;;;19.25;;
25279;SDS011;13225;47.804;12.116;2023-02-14T04:47:57;47.50;;;18.80;;
25279;SDS011;13225;47.804;12.116;2023-02-14T04:50:22;54.00;;;20.10;;
25279;SDS011;13225;47.804;12.116;2023-02-14T04:52:49;56.15;;;20.20;;
25279;SDS011;13225;47.804;12.116;2023-02-14T04:55:15;51.70;;;18.27;;
25279;SDS011;13225;47.804;12.116;2023-02-14T04:57:41;52.72;;;18.55;;
25279;SDS011;13225;47.804;12.116;2023-02-14T05:00:07;48.75;;;19.15;;
25279;SDS011;13225;47.804;12.116;2023-02-14T05:02:33;50.42;;;19.10;;
25279;SDS011;13225;47.804;12.116;2023-02-14T05:04:59;51.38;;;18.55;;
25279;SDS011;13225;47.804;12.116;2023-02-14T05:07:24;50.85;;;17.77;;
25279;SDS011;13225;47.804;12.116;2023-02-14T05:09:50;49.88;;;18.73;;
25279;SDS011;13225;47.804;12.116;2023-02-14T05:12:16;56.13;;;22.40;;
25279;SDS011;13225;47.804;12.116;2023-02-14T05:14:41;47.35;;;18.83;;
25279;SDS011;13225;47.804;12.116;2023-02-14T05:17:07;48.72;;;18.45;;
25279;SDS011;13225;47.804;12.116;2023-02-14T05:19:33;46.55;;;17.85;;
25279;SDS011;13225;47.804;12.116;2023-02-14T05:21:58;51.72;;;18.10;;
25279;SDS011;13225;47.804;12.116;2023-02-14T05:24:24;47.97;;;17.95;;
25279;SDS011;13225;47.804;12.116;2023-02-14T05:26:49;49.80;;;18.20;;
25279;SDS011;13225;47.804;12.116;2023-02-14T05:29:15;44.50;;;16.98;;
25279;SDS011;13225;47.804;12.116;2023-02-14T05:31:41;47.08;;;17.90;;
25279;SDS011;13225;47.804;12.116;2023-02-14T05:34:06;50.03;;;18.42;;
25279;SDS011;13225;47.804;12.116;2023-02-14T05:36:32;52.72;;;20.17;;
25279;SDS011;13225;47.804;12.116;2023-02-14T05:38:57;54.05;;;20.38;;
25279;SDS011;13225;47.804;12.116;2023-02-14T05:41:23;51.10;;;21.65;;
25279;SDS011;13225;47.804;12.116;2023-02-14T05:43:48;53.45;;;22.58;;
25279;SDS011;13225;47.804;12.116;2023-02-14T05:46:14;47.00;;;20.17;;
25279;SDS011;13225;47.804;12.116;2023-02-14T05:48:40;44.20;;;18.27;;
25279;SDS011;13225;47.804;12.116;2023-02-14T05:51:07;51.22;;;18.90;;
25279;SDS011;13225;47.804;12.116;2023-02-14T05:53:34;44.40;;;17.40;;
25279;SDS011;13225;47.804;12.116;2023-02-14T05:56:00;44.65;;;17.67;;
25279;SDS011;13225;47.804;12.116;2023-02-14T05:58:26;45.97;;;17.67;;
25279;SDS011;13225;47.804;12.116;2023-02-14T06:00:52;53.33;;;19.98;;
25279;SDS011;13225;47.804;12.116;2023-02-14T06:03:17;50.30;;;19.25;;
25279;SDS011;13225;47.804;12.116;2023-02-14T06:05:43;53.03;;;18.77;;
25279;SDS011;13225;47.804;12.116;2023-02-14T06:08:08;49.15;;;17.75;;
25279;SDS011;13225;47.804;12.116;2023-02-14T06:10:34;50.00;;;17.75;;
25279;SDS011;13225;47.804;12.116;2023-02-14T06:13:00;45.05;;;16.63;;
25279;SDS011;13225;47.804;12.116;2023-02-14T06:15:25;49.28;;;18.13;;
25279;SDS011;13225;47.804;12.116;2023-02-14T06:17:55;47.70;;;18.30;;
25279;SDS011;13225;47.804;12.116;2023-02-14T06:20:21;50.25;;;18.50;;
25279;SDS011;13225;47.804;12.116;2023-02-14T06:22:48;43.97;;;16.67;;
25279;SDS011;13225;47.804;12.116;2023-02-14T06:25:14;40.15;;;16.73;;
25279;SDS011;13225;47.804;12.116;2023-02-14T06:27:40;46.47;;;17.45;;
25279;SDS011;13225;47.804;12.116;2023-02-14T06:30:07;50.40;;;17.98;;
25279;SDS011;13225;47.804;12.116;2023-02-14T06:32:34;38.83;;;15.32;;
25279;SDS011;13225;47.804;12.116;2023-02-14T06:35:00;48.17;;;17.98;;
25279;SDS011;13225;47.804;12.116;2023-02-14T06:37:26;52.35;;;18.27;;
25279;SDS011;13225;47.804;12.116;2023-02-14T06:39:51;45.38;;;16.60;;
25279;SDS011;13225;47.804;12.116;2023-02-14T06:42:17;45.35;;;16.23;;
25279;SDS011;13225;47.804;12.116;2023-02-14T06:44:43;45.92;;;17.73;;
25279;SDS011;13225;47.804;12.116;2023-02-14T06:47:08;42.60;;;15.88;;
25279;SDS011;13225;47.804;12.116;2023-02-14T06:49:34;44.58;;;16.50;;
25279;SDS011;13225;47.804;12.116;2023-02-14T06:51:59;42.53;;;15.57;;
25279;SDS011;13225;47.804;12.116;2023-02-14T06:54:25;52.05;;;16.70;;
25279;SDS011;13225;47.804;12.116;2023-02-14T06:56:50;40.35;;;15.52;;
25279;SDS011;13225;47.804;12.116;2023-02-14T06:59:16;40.65;;;14.85;;
25279;SDS011;13225;47.804;12.116;2023-02-14T07:01:42;41.03;;;16.45;;
25279;SDS011;13225;47.804;12.116;2023-02-14T07:04:07;41.38;;;15.30;;
25279;SDS011;13225;47.804;12.116;2023-02-14T07:06:34;35.38;;;13.88;;
25279;SDS011;13225;47.804;12.116;2023-02-14T07:09:00;40.88;;;14.85;;
25279;SDS011;13225;47.804;12.116;2023-02-14T07:11:26;38.67;;;14.13;;
25279;SDS011;13225;47.804;12.116;2023-02-14T07:13:52;43.97;;;14.85;;
25279;SDS011;13225;47.804;12.116;2023-02-14T07:16:18;41.63;;;15.25;;
25279;SDS011;13225;47.804;12.116;2023-02-14T07:18:43;40.75;;;16.67;;
25279;SDS011;13225;47.804;12.116;2023-02-14T07:21:09;41.65;;;15.00;;
25279;SDS011;13225;47.804;12.116;2023-02-14T07:23:34;40.47;;;15.98;;
25279;SDS011;13225;47.804;12.116;2023-02-14T07:26:00;45.53;;;16.15;;
25279;SDS011;13225;47.804;12.116;2023-02-14T07:28:25;47.10;;;17.27;;
25279;SDS011;13225;47.804;12.116;2023-02-14T07:30:51;43.10;;;16.25;;
25279;SDS011;13225;47.804;12.116;2023-02-14T07:33:17;48.25;;;16.40;;
25279;SDS011;13225;47.804;12.116;2023-02-14T07:35:42;38.42;;;14.40;;
25279;SDS011;13225;47.804;12.116;2023-02-14T07:38:08;38.72;;;15.70;;
25279;SDS011;13225;47.804;12.116;2023-02-14T07:40:33;40.92;;;15.70;;
25279;SDS011;13225;47.804;12.116;2023-02-14T07:42:59;37.33;;;14.45;;
25279;SDS011;13225;47.804;12.116;2023-02-14T07:45:25;40.13;;;15.13;;
25279;SDS011;13225;47.804;12.116;2023-02-14T07:47:51;40.58;;;15.48;;
25279;SDS011;13225;47.804;12.116;2023-02-14T07:50:18;35.80;;;14.85;;
25279;SDS011;13225;47.804;12.116;2023-02-14T07:52:45;31.83;;;13.73;;
25279;SDS011;13225;47.804;12.116;2023-02-14T07:55:11;40.38;;;15.75;;
25279;SDS011;13225;47.804;12.116;2023-02-14T07:57:37;39.33;;;15.80;;
25279;SDS011;13225;47.804;12.116;2023-02-14T08:00:04;29.63;;;12.40;;
25279;SDS011;13225;47.804;12.116;2023-02-14T08:02:30;34.00;;;13.88;;
25279;SDS011;13225;47.804;12.116;2023-02-14T08:04:56;43.38;;;15.80;;
25279;SDS011;13225;47.804;12.116;2023-02-14T08:07:21;53.25;;;18.95;;
25279;SDS011;13225;47.804;12.116;2023-02-14T08:09:47;48.72;;;18.13;;
25279;SDS011;13225;47.804;12.116;2023-02-14T08:12:12;52.22;;;19.10;;
25279;SDS011;13225;47.804;12.116;2023-02-14T08:14:56;48.13;;;16.88;;
25279;SDS011;13225;47.804;12.116;2023-02-14T08:17:42;43.25;;;17.08;;
25279;SDS011;13225;47.804;12.116;2023-02-14T08:20:07;37.42;;;16.15;;
25279;SDS011;13225;47.804;12.116;2023-02-14T08:22:33;37.08;;;16.15;;
25279;SDS011;13225;47.804;12.116;2023-02-14T08:24:59;36.78;;;14.85;;
25279;SDS011;13225;47.804;12.116;2023-02-14T08:27:24;34.13;;;13.52;;
25279;SDS011;13225;47.804;12.116;2023-02-14T08:29:50;32.42;;;13.55;;
25279;SDS011;13225;47.804;12.116;2023-02-14T08:32:15;34.00;;;13.85;;
25279;SDS011;13225;47.804;12.116;2023-02-14T08:34:44;28.52;;;12.52;;
25279;SDS011;13225;47.804;12.116;2023-02-14T08:37:10;32.80;;;12.85;;
25279;SDS011;13225;47.804;12.116;2023-02-14T08:39:37;36.70;;;15.25;;
25279;SDS011;13225;47.804;12.116;2023-02-14T08:42:03;35.75;;;14.38;;
25279;SDS011;13225;47.804;12.116;2023-02-14T08:44:29;39.58;;;15.15;;
25279;SDS011;13225;47.804;12.116;2023-02-14T08:46:55;37.33;;;14.93;;
25279;SDS011;13225;47.804;12.116;2023-02-14T08:49:20;31.38;;;13.50;;
25279;SDS011;13225;47.804;12.116;2023-02-14T08:51:46;28.70;;;13.05;;
25279;SDS011;13225;47.804;12.116;2023-02-14T08:54:11;26.42;;;11.65;;
25279;SDS011;13225;47.804;12.116;2023-02-14T08:56:37;32.75;;;12.68;;
25279;SDS011;13225;47.804;12.116;2023-02-14T08:59:03;31.45;;;13.93;;
25279;SDS011;13225;47.804;12.116;2023-02-14T09:01:28;35.38;;;14.32;;
25279;SDS011;13225;47.804;12.116;2023-02-14T09:03:54;28.52;;;10.65;;
25279;SDS011;13225;47.804;12.116;2023-02-14T09:06:20;29.77;;;11.90;;
25279;SDS011;13225;47.804;12.116;2023-02-14T09:08:46;32.25;;;12.68;;
25279;SDS011;13225;47.804;12.116;2023-02-14T09:11:16;31.50;;;12.07;;
25279;SDS011;13225;47.804;12.116;2023-02-14T09:13:48;30.00;;;13.07;;
25279;SDS011;13225;47.804;12.116;2023-02-14T09:16:16;28.70;;;13.02;;
25279;SDS011;13225;47.804;12.116;2023-02-14T09:18:45;32.72;;;13.60;;
25279;SDS011;13225;47.804;12.116;2023-02-14T09:21:15;42.17;;;17.73;;
25279;SDS011;13225;47.804;12.116;2023-02-14T09:23:43;32.37;;;12.37;;
25279;SDS011;13225;47.804;12.116;2023-02-14T09:26:09;31.95;;;13.43;;
25279;SDS011;13225;47.804;12.116;2023-02-14T09:28:37;29.38;;;13.10;;
25279;SDS011;13225;47.804;12.116;2023-02-14T09:31:10;28.08;;;13.00;;
25279;SDS011;13225;47.804;12.116;2023-02-14T09:33:37;44.15;;;16.80;;
25279;SDS011;13225;47.804;12.116;2023-02-14T09:36:04;35.28;;;13.80;;
25279;SDS011;13225;47.804;12.116;2023-02-14T09:38:48;24.42;;;11.10;;
25279;SDS011;13225;47.804;12.116;2023-02-14T09:42:01;29.13;;;12.90;;
25279;SDS011;13225;47.804;12.116;2023-02-14T09:46:55;26.27;;;12.20;;
25279;SDS011;13225;47.804;12.116;2023-02-14T09:49:34;28.60;;;13.48;;
25279;SDS011;13225;47.804;12.116;2023-02-14T09:52:02;25.23;;;12.10;;
25279;SDS011;13225;47.804;12.116;2023-02-14T09:54:31;27.17;;;11.52;;
25279;SDS011;13225;47.804;12.116;2023-02-14T09:57:00;47.15;;;15.18;;
25279;SDS011;13225;47.804;12.116;2023-02-14T09:59:42;29.77;;;13.35;;
25279;SDS011;13225;47.804;12.116;2023-02-14T10:03:00;24.83;;;11.05;;
25279;SDS011;13225;47.804;12.116;2023-02-14T10:05:47;47.45;;;16.50;;
25279;SDS011;13225;47.804;12.116;2023-02-14T10:11:22;25.83;;;11.68;;
25279;SDS011;13225;47.804;12.116;2023-02-14T10:13:54;19.88;;;11.00;;
25279;SDS011;13225;47.804;12.116;2023-02-14T10:16:28;26.52;;;11.93;;
25279;SDS011;13225;47.804;12.116;2023-02-14T10:19:09;24.27;;;11.60;;
25279;SDS011;13225;47.804;12.116;2023-02-14T10:22:00;23.40;;;10.25;;
25279;SDS011;13225;47.804;12.116;2023-02-14T10:27:04;23.13;;;11.85;;
25279;SDS011;13225;47.804;12.116;2023-02-14T10:29:54;20.55;;;9.60;;
25279;SDS011;13225;47.804;12.116;2023-02-14T10:32:22;21.88;;;10.45;;
25279;SDS011;13225;47.804;12.116;2023-02-14T10:34:56;13.40;;;6.22;;
25279;SDS011;13225;47.804;12.116;2023-02-14T10:37:31;20.23;;;8.68;;
25279;SDS011;13225;47.804;12.116;2023-02-14T10:51:15;22.33;;;10.13;;
25279;SDS011;13225;47.804;12.116;2023-02-14T10:56:33;23.23;;;10.82;;
25279;SDS011;13225;47.804;12.116;2023-02-14T10:59:10;16.42;;;8.30;;
25279;SDS011;13225;47.804;12.116;2023-02-14T11:01:45;19.05;;;9.70;;
25279;SDS011;13225;47.804;12.116;2023-02-14T11:04:12;22.92;;;10.68;;
25279;SDS011;13225;47.804;12.116;2023-02-14T11:06:41;21.30;;;10.65;;
25279;SDS011;13225;47.804;12.116;2023-02-14T11:09:08;20.73;;;10.70;;
25279;SDS011;13225;47.804;12.116;2023-02-14T11:11:40;22.33;;;11.52;;
25279;SDS011;13225;47.804;12.116;2023-02-14T11:14:23;21.13;;;10.70;;
25279;SDS011;13225;47.804;12.116;2023-02-14T11:16:50;19.17;;;10.18;;
25279;SDS011;13225;47.804;12.116;2023-02-14T11:19:18;17.40;;;8.88;;
25279;SDS011;13225;47.804;12.116;2023-02-14T11:21:47;12.43;;;6.30;;
25279;SDS011;13225;47.804;12.116;2023-02-14T11:34:35;19.17;;;10.15;;
25279;SDS011;13225;47.804;12.116;2023-02-14T11:37:14;19.60;;;10.90;;
25279;SDS011;13225;47.804;12.116;2023-02-14T11:39:50;16.50;;;9.30;;
25279;SDS011;13225;47.804;12.116;2023-02-14T11:43:16;19.10;;;9.75;;
25279;SDS011;13225;47.804;12.116;2023-02-14T11:45:42;17.58;;;9.60;;
25279;SDS011;13225;47.804;12.116;2023-02-14T11:53:19;14.43;;;7.97;;
25279;SDS011;13225;47.804;12.116;2023-02-14T11:55:52;17.33;;;9.40;;
25279;SDS011;13225;47.804;12.116;2023-02-14T11:58:34;16.97;;;9.80;;
25279;SDS011;13225;47.804;12.116;2023-02-14T12:01:02;18.88;;;9.40;;
25279;SDS011;13225;47.804;12.116;2023-02-14T12:03:32;16.23;;;9.25;;
25279;SDS011;13225;47.804;12.116;2023-02-14T12:06:08;15.18;;;9.20;;
25279;SDS011;13225;47.804;12.116;2023-02-14T12:08:34;17.38;;;8.73;;
25279;SDS011;13225;47.804;12.116;2023-02-14T12:11:21;18.00;;;10.25;;
25279;SDS011;13225;47.804;12.116;2023-02-14T12:13:54;16.58;;;9.65;;
25279;SDS011;13225;47.804;12.116;2023-02-14T12:16:29;20.13;;;10.18;;
25279;SDS011;13225;47.804;12.116;2023-02-14T12:19:02;16.85;;;9.38;;
25279;SDS011;13225;47.804;12.116;2023-02-14T12:21:39;16.10;;;8.95;;
25279;SDS011;13225;47.804;12.116;2023-02-14T12:24:14;19.42;;;9.45;;
25279;SDS011;13225;47.804;12.116;2023-02-14T12:27:09;18.85;;;9.50;;
25279;SDS011;13225;47.804;12.116;2023-02-14T12:29:47;20.88;;;10.43;;
25279;SDS011;13225;47.804;12.116;2023-02-14T12:32:24;16.95;;;9.18;;
25279;SDS011;13225;47.804;12.116;2023-02-14T12:34:54;18.23;;;10.27;;
25279;SDS011;13225;47.804;12.116;2023-02-14T12:57:03;16.30;;;10.02;;
25279;SDS011;13225;47.804;12.116;2023-02-14T13:05:40;14.95;;;9.68;;
25279;SDS011;13225;47.804;12.116;2023-02-14T13:08:25;14.57;;;8.80;;
25279;SDS011;13225;47.804;12.116;2023-02-14T13:13:56;17.85;;;9.75;;
25279;SDS011;13225;47.804;12.116;2023-02-14T13:19:26;11.75;;;8.25;;
25279;SDS011;13225;47.804;12.116;2023-02-14T13:22:00;14.02;;;9.10;;
25279;SDS011;13225;47.804;12.116;2023-02-14T13:24:34;14.10;;;9.55;;
25279;SDS011;13225;47.804;12.116;2023-02-14T13:27:07;13.70;;;9.23;;
25279;SDS011;13225;47.804;12.116;2023-02-14T13:29:47;12.90;;;8.93;;
25279;SDS011;13225;47.804;12.116;2023-02-14T13:32:17;13.57;;;9.50;;
25279;SDS011;13225;47.804;12.116;2023-02-14T13:34:47;14.13;;;8.75;;
25279;SDS011;13225;47.804;12.116;2023-02-14T13:37:17;12.00;;;8.38;;
25279;SDS011;13225;47.804;12.116;2023-02-14T13:39:56;13.45;;;9.13;;
25279;SDS011;13225;47.804;12.116;2023-02-14T13:48:16;14.70;;;9.07;;
25279;SDS011;13225;47.804;12.116;2023-02-14T13:53:33;13.82;;;8.85;;
25279;SDS011;13225;47.804;12.116;2023-02-14T13:56:00;13.05;;;8.70;;
25279;SDS011;13225;47.804;12.116;2023-02-14T13:58:52;13.25;;;8.98;;
25279;SDS011;13225;47.804;12.116;2023-02-14T14:01:33;13.93;;;9.18;;
25279;SDS011;13225;47.804;12.116;2023-02-14T14:04:05;14.77;;;9.30;;
25279;SDS011;13225;47.804;12.116;2023-02-14T14:07:17;11.50;;;8.05;;
25279;SDS011;13225;47.804;12.116;2023-02-14T14:15:12;18.92;;;8.80;;
25279;SDS011;13225;47.804;12.116;2023-02-14T14:17:38;13.27;;;9.35;;
25279;SDS011;13225;47.804;12.116;2023-02-14T14:22:46;13.23;;;9.40;;
25279;SDS011;13225;47.804;12.116;2023-02-14T14:25:27;11.50;;;7.53;;
25279;SDS011;13225;47.804;12.116;2023-02-14T14:31:02;12.48;;;8.63;;
25279;SDS011;13225;47.804;12.116;2023-02-14T14:33:29;13.45;;;8.25;;
25279;SDS011;13225;47.804;12.116;2023-02-14T14:35:58;12.63;;;8.93;;
25279;SDS011;13225;47.804;12.116;2023-02-14T14:38:26;11.73;;;8.63;;
25279;SDS011;13225;47.804;12.116;2023-02-14T14:40:53;12.55;;;8.40;;
25279;SDS011;13225;47.804;12.116;2023-02-14T14:43:23;12.02;;;7.03;;
25279;SDS011;13225;47.804;12.116;2023-02-14T14:45:49;12.90;;;8.60;;
25279;SDS011;13225;47.804;12.116;2023-02-14T14:48:18;13.25;;;7.55;;
25279;SDS011;13225;47.804;12.116;2023-02-14T14:50:57;12.23;;;7.07;;
25279;SDS011;13225;47.804;12.116;2023-02-14T14:53:25;13.80;;;7.78;;
25279;SDS011;13225;47.804;12.116;2023-02-14T14:55:55;12.30;;;8.43;;
25279;SDS011;13225;47.804;12.116;2023-02-14T14:58:38;9.27;;;6.30;;
25279;SDS011;13225;47.804;12.116;2023-02-14T15:01:05;12.68;;;7.57;;
25279;SDS011;13225;47.804;12.116;2023-02-14T15:03:35;12.68;;;8.27;;
25279;SDS011;13225;47.804;12.116;2023-02-14T15:08:38;14.57;;;7.97;;
25279;SDS011;13225;47.804;12.116;2023-02-14T15:13:58;11.65;;;7.07;;
25279;SDS011;13225;47.804;12.116;2023-02-14T15:22:04;14.07;;;6.80;;
25279;SDS011;13225;47.804;12.116;2023-02-14T15:24:31;10.52;;;7.30;;
25279;SDS011;13225;47.804;12.116;2023-02-14T15:26:59;11.93;;;8.35;;
25279;SDS011;13225;47.804;12.116;2023-02-14T15:29:27;16.40;;;9.85;;
25279;SDS011;13225;47.804;12.116;2023-02-14T15:31:55;15.00;;;9.73;;
25279;SDS011;13225;47.804;12.116;2023-02-14T15:34:23;14.82;;;8.82;;
25279;SDS011;13225;47.804;12.116;2023-02-14T15:36:52;15.43;;;9.27;;
25279;SDS011;13225;47.804;12.116;2023-02-14T15:39:21;22.80;;;14.23;;
25279;SDS011;13225;47.804;12.116;2023-02-14T15:41:52;21.80;;;11.77;;
25279;SDS011;13225;47.804;12.116;2023-02-14T15:44:20;27.13;;;10.35;;
25279;SDS011;13225;47.804;12.116;2023-02-14T15:46:47;24.02;;;11.52;;
25279;SDS011;13225;47.804;12.116;2023-02-14T15:49:22;13.30;;;8.77;;
25279;SDS011;13225;47.804;12.116;2023-02-14T15:51:55;19.38;;;10.13;;
25279;SDS011;13225;47.804;12.116;2023-02-14T15:54:26;22.35;;;12.93;;
25279;SDS011;13225;47.804;12.116;2023-02-14T15:57:00;18.42;;;10.05;;
25279;SDS011;13225;47.804;12.116;2023-02-14T15:59:28;25.83;;;14.88;;
25279;SDS011;13225;47.804;12.116;2023-02-14T16:04:41;16.90;;;10.40;;
25279;SDS011;13225;47.804;12.116;2023-02-14T16:12:55;21.65;;;13.18;;
25279;SDS011;13225;47.804;12.116;2023-02-14T16:15:42;27.33;;;14.35;;
25279;SDS011;13225;47.804;12.116;2023-02-14T16:21:20;26.50;;;15.23;;
25279;SDS011;13225;47.804;12.116;2023-02-14T16:26:38;34.20;;;19.63;;
25279;SDS011;13225;47.804;12.116;2023-02-14T16:29:10;34.63;;;19.90;;
25279;SDS011;13225;47.804;12.116;2023-02-14T16:31:37;26.35;;;13.98;;
25279;SDS011;13225;47.804;12.116;2023-02-14T16:34:08;33.97;;;19.02;;
25279;SDS011;13225;47.804;12.116;2023-02-14T16:36:37;31.02;;;16.15;;
25279;SDS011;13225;47.804;12.116;2023-02-14T16:39:03;31.50;;;16.90;;
25279;SDS011;13225;47.804;12.116;2023-02-14T16:41:29;39.80;;;20.58;;
25279;SDS011;13225;47.804;12.116;2023-02-14T16:43:57;35.50;;;18.15;;
25279;SDS011;13225;47.804;12.116;2023-02-14T16:46:34;34.88;;;18.42;;
25279;SDS011;13225;47.804;12.116;2023-02-14T16:48:59;33.88;;;17.23;;
25279;SDS011;13225;47.804;12.116;2023-02-14T16:51:26;30.17;;;15.73;;
25279;SDS011;13225;47.804;12.116;2023-02-14T16:53:56;27.90;;;15.52;;
25279;SDS011;13225;47.804;12.116;2023-02-14T16:56:28;30.80;;;16.60;;
25279;SDS011;13225;47.804;12.116;2023-02-14T16:59:02;25.10;;;13.82;;
25279;SDS011;13225;47.804;12.116;2023-02-14T17:01:28;25.38;;;15.13;;
25279;SDS011;13225;47.804;12.116;2023-02-14T17:03:54;26.25;;;13.85;;
25279;SDS011;13225;47.804;12.116;2023-02-14T17:06:20;30.98;;;15.98;;
25279;SDS011;13225;47.804;12.116;2023-02-14T17:08:48;28.77;;;15.63;;
25279;SDS011;13225;47.804;12.116;2023-02-14T17:11:16;30.85;;;15.73;;
25279;SDS011;13225;47.804;12.116;2023-02-14T17:13:42;30.38;;;16.35;;
25279;SDS011;13225;47.804;12.116;2023-02-14T17:16:10;35.95;;;20.02;;
25279;SDS011;13225;47.804;12.116;2023-02-14T17:18:39;38.08;;;18.38;;
25279;SDS011;13225;47.804;12.116;2023-02-14T17:21:07;34.97;;;17.50;;